Overview Statistics Trail Chart Weather Telemetry Raw packets
 

This is the latest recevied weather packets stored in our database for station/object WX5RP. If no packets are shown the sender has not sent any weather packets the latest 10 day(s).

<< 51 52 53 54 55 56 57 >>
Time Temp. Humidity Pressure Rain* Wind** Luminosity Snow
1777196115 -3.89° C 68% 1007.5 hPa 0 mm - 0 W/m² -
1777195515 -4.44° C 69% 1007.5 hPa 0 mm - 0 W/m² -
1777194915 -5° C 66% 1007.2 hPa 0 mm - 0 W/m² -
1777194317 -5.56° C 67% 1007.1 hPa 0 mm - 0 W/m² -
1777193717 -5° C 65% 1007.2 hPa 0 mm - 0 W/m² -
1777193117 -3.89° C 62% 1007.5 hPa 0 mm - 0 W/m² -
1777192517 -3.33° C 62% 1006.9 hPa 0 mm - 0 W/m² -
1777191917 -3.89° C 63% 1007.2 hPa 0 mm - 0 W/m² -
1777191317 -3.33° C 62% 1007.2 hPa 0 mm - 0 W/m² -
1777190717 -2.78° C 58% 1007.6 hPa 0 mm - 0 W/m² -
1777190117 -2.22° C 56% 1007.3 hPa 0 mm - 0 W/m² -
1777189517 -1.67° C 55% 1007.6 hPa 0 mm - 0 W/m² -
1777188917 -1.11° C 54% 1007.3 hPa 0 mm - 0 W/m² -
1777188317 -1.11° C 54% 1007.2 hPa 0 mm - 0 W/m² -
1777187717 -0.56° C 52% 1007.3 hPa 0 mm - 0 W/m² -
1777187116 0° C 51% 1007.2 hPa 0 mm - 0 W/m² -
1777186517 1.11° C 49% 1007.6 hPa 0 mm - 0 W/m² -
1777185916 1.11° C 45% 1007.6 hPa 0 mm - 0 W/m² -
1777185316 1.11° C 45% 1007.6 hPa 0 mm - 0 W/m² -
1777184716 1.11° C 46% 1007.6 hPa 0 mm - 0 W/m² -
1777184116 0.56° C 49% 1007.3 hPa 0 mm - 0 W/m² -
1777183516 1.67° C 46% 1007.3 hPa 0 mm - 0 W/m² -
1777182916 1.67° C 44% 1007.5 hPa 0 mm - 0 W/m² -
1777182316 1.67° C 43% 1007.5 hPa 0 mm - 0 W/m² -
1777181716 1.11° C 45% 1007.2 hPa 0 mm - 0 W/m² -

* Rain latest hour (hover to see other rain measurements)
** Current wind speed in m/s (hover to see current wind gust speed)